Huvudsida
METAR-TAF:

METAR-TAF

Flygplatser :

Chimoio, Moçambique

latitud: 19-07S, longitud: 033-28E, höjd: 731 m

Aktuellt väderrapport

Denna rapport gjordes för 52 minuter sedan, klockan 12:00 UTC
Temperatur 25°C
Fuktighet 44%
Tryck 1021 hPa
Sikt 10 km eller mer
Brutna moln på en höjd av 2000 ft

METAR: FQCH 181200Z /////KT 9999 BKN020 25/12 Q1021

Tid: 14:52 (12:52 UTC)

Väderprognos

Denna rapport gjordes för 2 timmar och 52 minuter sedan, klockan 10:00 UTC
Prognos gäller från 18 kl. 12 UTC till 19 kl. 12 UTC
Vind 3 kt varierande vindriktning
Sikt 10 km eller mer
Få moln på en höjd av 2000 ft
Blir
från 18 kl. 18 UTC till 18 kl. 20 UTC
Vind 8 kt från ost
Blir
från 19 kl. 00 UTC till 19 kl. 02 UTC
Vind 8 kt från nordost
Blir
från 19 kl. 06 UTC till 19 kl. 08 UTC
Vind 3 kt varierande vindriktning

TAF: FQCH 181000Z 1812/1912 VRB03KT 9999 FEW020 TX26/1813Z TN13/1902Z BECMG 1818/1820 10008KT BECMG 1900/1902 04008KT BECMG 1906/1908 VRB03KT

Aktuella väderrapporter och prognoser från 4000 flygplatser (METAR- och TAF-rapporter).

De tillgängliga stationerna syns som gula och röda prickar på kartan.

För musen över prickarna för att se namnen på stationerna.

Klicka sedan för att få väderrapporter och prognoser.

För att ändra kartan: Klicka på de gröna knapparna med ett svart kors på för att zooma in; den gröna knappen med ett streck på för att zooma ut; eller på de gröna pilarna för angränsande kartor.


METAR-TAF: